sensor_id;sensor_type;location;lat;lon;timestamp;pressure;altitude;pressure_sealevel;temperature;humidity
68075;BME280;54864;52.002;5.468;2023-03-15T00:00:53;101047.56;;;4.09;85.63
68075;BME280;54864;52.002;5.468;2023-03-15T00:01:56;101035.28;;;4.16;85.35
68075;BME280;54864;52.002;5.468;2023-03-15T00:02:57;101046.75;;;4.06;85.10
68075;BME280;54864;52.002;5.468;2023-03-15T00:03:58;101039.78;;;4.06;85.60
68075;BME280;54864;52.002;5.468;2023-03-15T00:04:59;101029.22;;;4.14;85.44
68075;BME280;54864;52.002;5.468;2023-03-15T00:06:01;101037.69;;;4.28;85.13
68075;BME280;54864;52.002;5.468;2023-03-15T00:07:02;101038.53;;;4.30;85.43
68075;BME280;54864;52.002;5.468;2023-03-15T00:08:04;101034.94;;;4.37;85.02
68075;BME280;54864;52.002;5.468;2023-03-15T00:09:07;101040.13;;;4.39;85.42
68075;BME280;54864;52.002;5.468;2023-03-15T00:10:09;101035.78;;;4.39;85.04
68075;BME280;54864;52.002;5.468;2023-03-15T00:11:10;101038.63;;;4.26;84.91
68075;BME280;54864;52.002;5.468;2023-03-15T00:12:12;101042.75;;;4.39;85.55
68075;BME280;54864;52.002;5.468;2023-03-15T00:13:14;101039.13;;;4.47;85.03
68075;BME280;54864;52.002;5.468;2023-03-15T00:14:16;101051.34;;;4.44;85.25
68075;BME280;54864;52.002;5.468;2023-03-15T00:15:17;101044.50;;;4.38;84.81
68075;BME280;54864;52.002;5.468;2023-03-15T00:16:18;101044.41;;;4.43;85.33
68075;BME280;54864;52.002;5.468;2023-03-15T00:17:19;101032.50;;;4.27;84.45
68075;BME280;54864;52.002;5.468;2023-03-15T00:18:22;101046.59;;;4.15;85.10
68075;BME280;54864;52.002;5.468;2023-03-15T00:19:22;101042.25;;;4.16;86.02
68075;BME280;54864;52.002;5.468;2023-03-15T00:20:24;101050.06;;;4.17;86.38
68075;BME280;54864;52.002;5.468;2023-03-15T00:21:25;101047.41;;;4.19;86.41
68075;BME280;54864;52.002;5.468;2023-03-15T00:22:29;101048.22;;;4.24;85.55
68075;BME280;54864;52.002;5.468;2023-03-15T00:23:29;101046.53;;;4.20;86.54
68075;BME280;54864;52.002;5.468;2023-03-15T00:24:33;101046.59;;;4.15;86.30
68075;BME280;54864;52.002;5.468;2023-03-15T00:25:34;101039.41;;;4.31;86.29
68075;BME280;54864;52.002;5.468;2023-03-15T00:26:35;101045.66;;;4.21;85.70
68075;BME280;54864;52.002;5.468;2023-03-15T00:27:36;101044.72;;;4.25;86.20
68075;BME280;54864;52.002;5.468;2023-03-15T00:28:38;101051.66;;;4.26;85.65
68075;BME280;54864;52.002;5.468;2023-03-15T00:29:39;101053.41;;;4.25;86.23
68075;BME280;54864;52.002;5.468;2023-03-15T00:30:41;101047.19;;;4.32;86.00
68075;BME280;54864;52.002;5.468;2023-03-15T00:31:41;101059.34;;;4.35;85.36
68075;BME280;54864;52.002;5.468;2023-03-15T00:32:43;101061.06;;;4.36;85.00
68075;BME280;54864;52.002;5.468;2023-03-15T00:33:44;101055.59;;;4.51;85.25
68075;BME280;54864;52.002;5.468;2023-03-15T00:34:46;101060.75;;;4.56;84.67
68075;BME280;54864;52.002;5.468;2023-03-15T00:35:48;101058.84;;;4.65;84.36
68075;BME280;54864;52.002;5.468;2023-03-15T00:36:52;101056.50;;;4.49;84.80
68075;BME280;54864;52.002;5.468;2023-03-15T00:37:54;101054.69;;;4.54;85.32
68075;BME280;54864;52.002;5.468;2023-03-15T00:38:55;101048.44;;;4.64;85.05
68075;BME280;54864;52.002;5.468;2023-03-15T00:39:58;101048.56;;;4.56;85.00
68075;BME280;54864;52.002;5.468;2023-03-15T00:41:06;101041.50;;;4.63;84.61
68075;BME280;54864;52.002;5.468;2023-03-15T00:42:08;101041.38;;;4.69;84.34
68075;BME280;54864;52.002;5.468;2023-03-15T00:43:09;101045.63;;;4.74;83.71
68075;BME280;54864;52.002;5.468;2023-03-15T00:44:10;101039.63;;;4.69;83.05
68075;BME280;54864;52.002;5.468;2023-03-15T00:45:12;101042.28;;;4.68;83.41
68075;BME280;54864;52.002;5.468;2023-03-15T00:46:13;101046.69;;;4.64;82.98
68075;BME280;54864;52.002;5.468;2023-03-15T00:47:15;101050.34;;;4.53;83.23
68075;BME280;54864;52.002;5.468;2023-03-15T00:48:16;101043.34;;;4.56;83.75
68075;BME280;54864;52.002;5.468;2023-03-15T00:49:17;101040.72;;;4.55;83.54
68075;BME280;54864;52.002;5.468;2023-03-15T00:50:18;101045.03;;;4.59;83.27
68075;BME280;54864;52.002;5.468;2023-03-15T00:51:22;101051.88;;;4.66;83.30
68075;BME280;54864;52.002;5.468;2023-03-15T00:52:23;101050.13;;;4.66;83.26
68075;BME280;54864;52.002;5.468;2023-03-15T00:53:25;101049.09;;;4.75;83.15
68075;BME280;54864;52.002;5.468;2023-03-15T00:54:25;101055.22;;;4.74;82.09
68075;BME280;54864;52.002;5.468;2023-03-15T00:55:28;101060.50;;;4.71;83.07
68075;BME280;54864;52.002;5.468;2023-03-15T00:56:29;101065.78;;;4.68;82.94
68075;BME280;54864;52.002;5.468;2023-03-15T00:57:31;101064.81;;;4.73;82.80
68075;BME280;54864;52.002;5.468;2023-03-15T00:58:32;101063.91;;;4.76;82.58
68075;BME280;54864;52.002;5.468;2023-03-15T00:59:34;101070.03;;;4.73;82.43
68075;BME280;54864;52.002;5.468;2023-03-15T01:00:35;101074.38;;;4.73;82.88
68075;BME280;54864;52.002;5.468;2023-03-15T01:01:37;101071.72;;;4.76;82.26
68075;BME280;54864;52.002;5.468;2023-03-15T01:02:41;101080.25;;;4.86;82.60
68075;BME280;54864;52.002;5.468;2023-03-15T01:03:43;101076.72;;;4.88;82.03
68075;BME280;54864;52.002;5.468;2023-03-15T01:04:43;101082.09;;;4.81;81.59
68075;BME280;54864;52.002;5.468;2023-03-15T01:05:45;101071.78;;;4.73;81.90
68075;BME280;54864;52.002;5.468;2023-03-15T01:06:46;101072.53;;;4.80;81.99
68075;BME280;54864;52.002;5.468;2023-03-15T01:07:48;101069.13;;;4.76;80.83
68075;BME280;54864;52.002;5.468;2023-03-15T01:08:49;101070.88;;;4.75;80.51
68075;BME280;54864;52.002;5.468;2023-03-15T01:09:51;101071.94;;;4.64;81.96
68075;BME280;54864;52.002;5.468;2023-03-15T01:10:54;101071.81;;;4.71;81.97
68075;BME280;54864;52.002;5.468;2023-03-15T01:11:55;101072.69;;;4.70;81.82
68075;BME280;54864;52.002;5.468;2023-03-15T01:12:56;101077.09;;;4.68;81.21
68075;BME280;54864;52.002;5.468;2023-03-15T01:13:58;101077.06;;;4.70;81.09
68075;BME280;54864;52.002;5.468;2023-03-15T01:14:59;101078.69;;;4.75;80.75
68075;BME280;54864;52.002;5.468;2023-03-15T01:16:05;101079.59;;;4.74;80.66
68075;BME280;54864;52.002;5.468;2023-03-15T01:17:06;101081.31;;;4.75;80.96
68075;BME280;54864;52.002;5.468;2023-03-15T01:18:08;101084.88;;;4.71;80.89
68075;BME280;54864;52.002;5.468;2023-03-15T01:19:09;101080.59;;;4.66;80.77
68075;BME280;54864;52.002;5.468;2023-03-15T01:20:11;101088.59;;;4.57;80.59
68075;BME280;54864;52.002;5.468;2023-03-15T01:21:13;101090.44;;;4.49;81.46
68075;BME280;54864;52.002;5.468;2023-03-15T01:22:16;101098.16;;;4.55;81.36
68075;BME280;54864;52.002;5.468;2023-03-15T01:23:17;101091.09;;;4.64;81.36
68075;BME280;54864;52.002;5.468;2023-03-15T01:24:18;101085.97;;;4.58;81.04
68075;BME280;54864;52.002;5.468;2023-03-15T01:25:19;101092.09;;;4.54;81.20
68075;BME280;54864;52.002;5.468;2023-03-15T01:26:23;101096.47;;;4.52;80.79
68075;BME280;54864;52.002;5.468;2023-03-15T01:27:23;101101.84;;;4.43;81.60
68075;BME280;54864;52.002;5.468;2023-03-15T01:28:25;101100.88;;;4.49;81.44
68075;BME280;54864;52.002;5.468;2023-03-15T01:29:26;101106.19;;;4.42;81.68
68075;BME280;54864;52.002;5.468;2023-03-15T01:30:28;101104.44;;;4.44;80.88
68075;BME280;54864;52.002;5.468;2023-03-15T01:31:29;101104.38;;;4.47;80.98
68075;BME280;54864;52.002;5.468;2023-03-15T01:32:31;101105.41;;;4.37;81.47
68075;BME280;54864;52.002;5.468;2023-03-15T01:33:32;101110.41;;;4.51;81.17
68075;BME280;54864;52.002;5.468;2023-03-15T01:34:34;101109.66;;;4.43;81.88
68075;BME280;54864;52.002;5.468;2023-03-15T01:35:35;101109.63;;;4.46;82.04
68075;BME280;54864;52.002;5.468;2023-03-15T01:36:37;101112.31;;;4.41;82.30
68075;BME280;54864;52.002;5.468;2023-03-15T01:37:37;101109.84;;;4.32;82.66
68075;BME280;54864;52.002;5.468;2023-03-15T01:38:39;101115.94;;;4.31;83.32
68075;BME280;54864;52.002;5.468;2023-03-15T01:39:40;101121.03;;;4.40;83.66
68075;BME280;54864;52.002;5.468;2023-03-15T01:40:43;101115.31;;;4.16;83.71
68075;BME280;54864;52.002;5.468;2023-03-15T01:41:45;101117.91;;;4.17;83.75
68075;BME280;54864;52.002;5.468;2023-03-15T01:42:51;101112.69;;;4.17;83.83
68075;BME280;54864;52.002;5.468;2023-03-15T01:43:52;101115.88;;;4.36;83.62
68075;BME280;54864;52.002;5.468;2023-03-15T01:44:55;101102.94;;;4.28;83.44
68075;BME280;54864;52.002;5.468;2023-03-15T01:46:21;101115.69;;;4.48;83.12
68075;BME280;54864;52.002;5.468;2023-03-15T01:47:24;101119.19;;;4.47;83.36
68075;BME280;54864;52.002;5.468;2023-03-15T01:48:28;101114.72;;;4.55;83.29
68075;BME280;54864;52.002;5.468;2023-03-15T01:49:32;101123.47;;;4.51;83.58
68075;BME280;54864;52.002;5.468;2023-03-15T01:50:34;101128.69;;;4.51;82.71
68075;BME280;54864;52.002;5.468;2023-03-15T01:51:38;101133.88;;;4.56;82.91
68075;BME280;54864;52.002;5.468;2023-03-15T01:52:41;101127.75;;;4.58;82.75
68075;BME280;54864;52.002;5.468;2023-03-15T01:53:44;101126.09;;;4.50;83.23
68075;BME280;54864;52.002;5.468;2023-03-15T01:54:51;101129.38;;;4.64;83.08
68075;BME280;54864;52.002;5.468;2023-03-15T01:55:53;101127.66;;;4.63;82.84
68075;BME280;54864;52.002;5.468;2023-03-15T01:57:00;101133.84;;;4.54;82.31
68075;BME280;54864;52.002;5.468;2023-03-15T01:58:04;101125.16;;;4.55;82.48
68075;BME280;54864;52.002;5.468;2023-03-15T01:59:11;101132.94;;;4.60;82.35
68075;BME280;54864;52.002;5.468;2023-03-15T02:00:16;101132.03;;;4.62;82.33
68075;BME280;54864;52.002;5.468;2023-03-15T02:01:19;101134.59;;;4.65;82.51
68075;BME280;54864;52.002;5.468;2023-03-15T02:02:21;101124.06;;;4.70;82.20
68075;BME280;54864;52.002;5.468;2023-03-15T02:03:27;101124.03;;;4.71;81.84
68075;BME280;54864;52.002;5.468;2023-03-15T02:04:33;101125.78;;;4.71;82.00
68075;BME280;54864;52.002;5.468;2023-03-15T02:05:38;101123.91;;;4.79;82.29
68075;BME280;54864;52.002;5.468;2023-03-15T02:06:45;101128.44;;;4.69;82.77
68075;BME280;54864;52.002;5.468;2023-03-15T02:07:48;101124.94;;;4.70;82.55
68075;BME280;54864;52.002;5.468;2023-03-15T02:08:52;101133.47;;;4.80;82.24
68075;BME280;54864;52.002;5.468;2023-03-15T02:09:59;101134.25;;;4.85;81.60
68075;BME280;54864;52.002;5.468;2023-03-15T02:11:04;101126.50;;;4.81;81.98
68075;BME280;54864;52.002;5.468;2023-03-15T02:12:08;101126.38;;;4.88;81.21
68075;BME280;54864;52.002;5.468;2023-03-15T02:13:13;101123.72;;;4.90;80.69
68075;BME280;54864;52.002;5.468;2023-03-15T02:14:15;101129.97;;;4.81;81.33
68075;BME280;54864;52.002;5.468;2023-03-15T02:15:18;101126.69;;;4.70;81.44
68075;BME280;54864;52.002;5.468;2023-03-15T02:16:20;101134.41;;;4.76;81.48
68075;BME280;54864;52.002;5.468;2023-03-15T02:17:28;101130.97;;;4.72;81.28
68075;BME280;54864;52.002;5.468;2023-03-15T02:18:30;101131.78;;;4.76;81.66
68075;BME280;54864;52.002;5.468;2023-03-15T02:19:43;101135.28;;;4.75;81.34
68075;BME280;54864;52.002;5.468;2023-03-15T02:20:52;101133.72;;;4.65;81.47
68075;BME280;54864;52.002;5.468;2023-03-15T02:22:08;101143.31;;;4.64;81.80
68075;BME280;54864;52.002;5.468;2023-03-15T02:23:15;101140.78;;;4.58;81.71
68075;BME280;54864;52.002;5.468;2023-03-15T02:24:26;101145.09;;;4.61;81.62
68075;BME280;54864;52.002;5.468;2023-03-15T02:25:39;101143.19;;;4.72;81.47
68075;BME280;54864;52.002;5.468;2023-03-15T02:26:44;101134.47;;;4.71;81.12
68075;BME280;54864;52.002;5.468;2023-03-15T02:27:50;101141.47;;;4.71;80.98
68075;BME280;54864;52.002;5.468;2023-03-15T02:28:51;101141.56;;;4.65;81.05
68075;BME280;54864;52.002;5.468;2023-03-15T02:29:54;101140.72;;;4.63;81.27
68075;BME280;54864;52.002;5.468;2023-03-15T02:30:54;101154.63;;;4.63;80.99
68075;BME280;54864;52.002;5.468;2023-03-15T02:31:57;101146.88;;;4.59;80.49
68075;BME280;54864;52.002;5.468;2023-03-15T02:33:00;101139.09;;;4.53;80.58
68075;BME280;54864;52.002;5.468;2023-03-15T02:34:05;101149.41;;;4.63;80.07
68075;BME280;54864;52.002;5.468;2023-03-15T02:35:07;101156.38;;;4.63;80.13
68075;BME280;54864;52.002;5.468;2023-03-15T02:36:14;101145.19;;;4.53;80.44
68075;BME280;54864;52.002;5.468;2023-03-15T02:37:16;101140.94;;;4.47;80.21
68075;BME280;54864;52.002;5.468;2023-03-15T02:38:18;101146.16;;;4.47;80.23
68075;BME280;54864;52.002;5.468;2023-03-15T02:39:20;101156.50;;;4.55;79.60
68075;BME280;54864;52.002;5.468;2023-03-15T02:40:24;101151.34;;;4.49;79.93
68075;BME280;54864;52.002;5.468;2023-03-15T02:41:29;101156.50;;;4.54;79.83
68075;BME280;54864;52.002;5.468;2023-03-15T02:42:33;101153.19;;;4.42;80.03
68075;BME280;54864;52.002;5.468;2023-03-15T02:43:35;101161.03;;;4.41;79.53
68075;BME280;54864;52.002;5.468;2023-03-15T02:44:38;101157.63;;;4.36;79.95
68075;BME280;54864;52.002;5.468;2023-03-15T02:45:41;101170.69;;;4.36;79.63
68075;BME280;54864;52.002;5.468;2023-03-15T02:46:45;101161.19;;;4.30;79.75
68075;BME280;54864;52.002;5.468;2023-03-15T02:47:48;101166.53;;;4.23;79.76
68075;BME280;54864;52.002;5.468;2023-03-15T02:48:50;101170.84;;;4.25;79.89
68075;BME280;54864;52.002;5.468;2023-03-15T02:49:53;101170.91;;;4.19;80.01
68075;BME280;54864;52.002;5.468;2023-03-15T02:50:55;101167.38;;;4.25;79.65
68075;BME280;54864;52.002;5.468;2023-03-15T02:51:55;101169.09;;;4.26;79.40
68075;BME280;54864;52.002;5.468;2023-03-15T02:52:57;101175.25;;;4.20;79.09
68075;BME280;54864;52.002;5.468;2023-03-15T02:53:58;101170.94;;;4.18;79.48
68075;BME280;54864;52.002;5.468;2023-03-15T02:55:06;101178.78;;;4.18;79.43
68075;BME280;54864;52.002;5.468;2023-03-15T02:56:07;101177.09;;;4.13;78.84
68075;BME280;54864;52.002;5.468;2023-03-15T02:57:09;101180.63;;;4.08;79.10
68075;BME280;54864;52.002;5.468;2023-03-15T02:58:10;101181.50;;;4.08;79.30
68075;BME280;54864;52.002;5.468;2023-03-15T02:59:13;101189.31;;;4.08;79.19
68075;BME280;54864;52.002;5.468;2023-03-15T03:00:14;101179.81;;;4.04;79.35
68075;BME280;54864;52.002;5.468;2023-03-15T03:01:17;101185.25;;;3.85;79.99
68075;BME280;54864;52.002;5.468;2023-03-15T03:02:18;101193.16;;;3.78;80.91
68075;BME280;54864;52.002;5.468;2023-03-15T03:03:20;101202.75;;;3.73;80.35
68075;BME280;54864;52.002;5.468;2023-03-15T03:04:21;101201.00;;;3.75;80.34
68075;BME280;54864;52.002;5.468;2023-03-15T03:05:22;101199.13;;;3.87;80.11
68075;BME280;54864;52.002;5.468;2023-03-15T03:06:23;101196.53;;;3.87;79.52
68075;BME280;54864;52.002;5.468;2023-03-15T03:07:25;101202.69;;;3.81;80.37
68075;BME280;54864;52.002;5.468;2023-03-15T03:08:25;101205.31;;;3.79;80.27
68075;BME280;54864;52.002;5.468;2023-03-15T03:09:27;101194.97;;;3.70;80.31
68075;BME280;54864;52.002;5.468;2023-03-15T03:10:28;101213.22;;;3.70;80.69
68075;BME280;54864;52.002;5.468;2023-03-15T03:11:30;101211.47;;;3.71;80.96
68075;BME280;54864;52.002;5.468;2023-03-15T03:12:31;101211.47;;;3.72;80.86
68075;BME280;54864;52.002;5.468;2023-03-15T03:13:32;101215.06;;;3.61;81.28
68075;BME280;54864;52.002;5.468;2023-03-15T03:14:35;101216.00;;;3.54;81.58
68075;BME280;54864;52.002;5.468;2023-03-15T03:15:36;101212.47;;;3.59;81.44
68075;BME280;54864;52.002;5.468;2023-03-15T03:16:37;101220.28;;;3.61;81.37
68075;BME280;54864;52.002;5.468;2023-03-15T03:17:39;101225.44;;;3.65;81.22
68075;BME280;54864;52.002;5.468;2023-03-15T03:18:42;101223.72;;;3.64;80.66
68075;BME280;54864;52.002;5.468;2023-03-15T03:19:43;101227.19;;;3.66;80.55
68075;BME280;54864;52.002;5.468;2023-03-15T03:20:44;101226.34;;;3.64;79.99
68075;BME280;54864;52.002;5.468;2023-03-15T03:21:46;101227.34;;;3.51;81.20
68075;BME280;54864;52.002;5.468;2023-03-15T03:22:47;101228.38;;;3.32;81.46
68075;BME280;54864;52.002;5.468;2023-03-15T03:23:48;101227.53;;;3.31;81.38
68075;BME280;54864;52.002;5.468;2023-03-15T03:24:49;101221.34;;;3.41;81.91
68075;BME280;54864;52.002;5.468;2023-03-15T03:25:51;101226.50;;;3.47;81.20
68075;BME280;54864;52.002;5.468;2023-03-15T03:26:53;101225.59;;;3.50;80.70
68075;BME280;54864;52.002;5.468;2023-03-15T03:27:57;101232.56;;;3.49;80.31
68075;BME280;54864;52.002;5.468;2023-03-15T03:28:58;101224.09;;;3.25;81.41
68075;BME280;54864;52.002;5.468;2023-03-15T03:30:10;101235.41;;;3.25;81.59
68075;BME280;54864;52.002;5.468;2023-03-15T03:31:16;101236.25;;;3.26;81.86
68075;BME280;54864;52.002;5.468;2023-03-15T03:32:18;101238.88;;;3.23;81.69
68075;BME280;54864;52.002;5.468;2023-03-15T03:33:18;101237.09;;;3.25;80.84
68075;BME280;54864;52.002;5.468;2023-03-15T03:34:21;101238.81;;;3.30;81.16
68075;BME280;54864;52.002;5.468;2023-03-15T03:35:21;101247.56;;;3.26;81.22
68075;BME280;54864;52.002;5.468;2023-03-15T03:36:23;101238.00;;;3.25;80.76
68075;BME280;54864;52.002;5.468;2023-03-15T03:37:24;101238.00;;;3.27;80.98
68075;BME280;54864;52.002;5.468;2023-03-15T03:38:26;101243.19;;;3.27;81.22
68075;BME280;54864;52.002;5.468;2023-03-15T03:39:27;101245.78;;;3.30;81.25
68075;BME280;54864;52.002;5.468;2023-03-15T03:40:28;101246.72;;;3.19;81.32
68075;BME280;54864;52.002;5.468;2023-03-15T03:41:29;101251.94;;;3.18;81.16
68075;BME280;54864;52.002;5.468;2023-03-15T03:42:31;101257.97;;;3.22;80.83
68075;BME280;54864;52.002;5.468;2023-03-15T03:43:32;101262.31;;;3.21;80.81
68075;BME280;54864;52.002;5.468;2023-03-15T03:44:33;101258.84;;;3.27;80.63
68075;BME280;54864;52.002;5.468;2023-03-15T03:45:35;101256.25;;;3.21;80.29
68075;BME280;54864;52.002;5.468;2023-03-15T03:46:37;101247.59;;;3.15;80.50
68075;BME280;54864;52.002;5.468;2023-03-15T03:47:38;101264.03;;;3.27;80.34
68075;BME280;54864;52.002;5.468;2023-03-15T03:48:39;101265.84;;;3.15;81.00
68075;BME280;54864;52.002;5.468;2023-03-15T03:49:40;101271.06;;;3.15;80.50
68075;BME280;54864;52.002;5.468;2023-03-15T03:50:42;101269.41;;;3.04;81.33
68075;BME280;54864;52.002;5.468;2023-03-15T03:51:43;101270.22;;;3.10;81.30
68075;BME280;54864;52.002;5.468;2023-03-15T03:52:44;101274.53;;;3.13;80.73
68075;BME280;54864;52.002;5.468;2023-03-15T03:53:45;101272.78;;;3.18;81.03
68075;BME280;54864;52.002;5.468;2023-03-15T03:54:47;101278.91;;;3.11;81.00
68075;BME280;54864;52.002;5.468;2023-03-15T03:55:47;101275.44;;;3.09;80.78
68075;BME280;54864;52.002;5.468;2023-03-15T03:56:49;101281.53;;;3.09;81.30
68075;BME280;54864;52.002;5.468;2023-03-15T03:57:50;101282.38;;;3.11;80.85
68075;BME280;54864;52.002;5.468;2023-03-15T03:58:52;101285.03;;;3.02;81.42
68075;BME280;54864;52.002;5.468;2023-03-15T03:59:53;101285.88;;;3.09;81.27
68075;BME280;54864;52.002;5.468;2023-03-15T04:00:56;101291.13;;;3.03;81.42
68075;BME280;54864;52.002;5.468;2023-03-15T04:01:57;101289.41;;;2.97;81.52
68075;BME280;54864;52.002;5.468;2023-03-15T04:02:59;101285.03;;;3.04;81.22
68075;BME280;54864;52.002;5.468;2023-03-15T04:04:04;101284.16;;;3.06;80.85
68075;BME280;54864;52.002;5.468;2023-03-15T04:05:06;101285.88;;;3.07;80.61
68075;BME280;54864;52.002;5.468;2023-03-15T04:06:07;101286.78;;;3.02;80.22
68075;BME280;54864;52.002;5.468;2023-03-15T04:07:09;101285.06;;;3.01;80.41
68075;BME280;54864;52.002;5.468;2023-03-15T04:08:10;101286.78;;;3.03;80.48
68075;BME280;54864;52.002;5.468;2023-03-15T04:09:12;101289.38;;;3.02;80.49
68075;BME280;54864;52.002;5.468;2023-03-15T04:10:13;101292.03;;;2.97;80.54
68075;BME280;54864;52.002;5.468;2023-03-15T04:11:14;101293.81;;;2.89;80.57
68075;BME280;54864;52.002;5.468;2023-03-15T04:12:16;101290.34;;;2.89;80.92
68075;BME280;54864;52.002;5.468;2023-03-15T04:13:18;101300.81;;;2.79;80.28
68075;BME280;54864;52.002;5.468;2023-03-15T04:14:19;101294.75;;;2.77;80.84
68075;BME280;54864;52.002;5.468;2023-03-15T04:15:21;101302.56;;;2.77;80.62
68075;BME280;54864;52.002;5.468;2023-03-15T04:16:23;101299.97;;;2.77;81.15
68075;BME280;54864;52.002;5.468;2023-03-15T04:17:25;101304.34;;;2.68;81.00
68075;BME280;54864;52.002;5.468;2023-03-15T04:18:27;101301.72;;;2.74;80.96
68075;BME280;54864;52.002;5.468;2023-03-15T04:19:28;101304.31;;;2.77;81.00
68075;BME280;54864;52.002;5.468;2023-03-15T04:20:29;101304.31;;;2.77;80.79
68075;BME280;54864;52.002;5.468;2023-03-15T04:21:34;101304.34;;;2.69;80.76
68075;BME280;54864;52.002;5.468;2023-03-15T04:22:36;101312.13;;;2.74;80.88
68075;BME280;54864;52.002;5.468;2023-03-15T04:23:39;101306.97;;;2.68;80.78
68075;BME280;54864;52.002;5.468;2023-03-15T04:24:41;101313.91;;;2.69;80.70
68075;BME280;54864;52.002;5.468;2023-03-15T04:25:42;101318.22;;;2.70;80.73
68075;BME280;54864;52.002;5.468;2023-03-15T04:26:44;101318.25;;;2.68;80.58
68075;BME280;54864;52.002;5.468;2023-03-15T04:27:45;101318.25;;;2.68;80.44
68075;BME280;54864;52.002;5.468;2023-03-15T04:28:58;101320.88;;;2.62;81.16
68075;BME280;54864;52.002;5.468;2023-03-15T04:29:58;101326.94;;;2.61;80.85
68075;BME280;54864;52.002;5.468;2023-03-15T04:31:04;101327.78;;;2.59;80.83
68075;BME280;54864;52.002;5.468;2023-03-15T04:32:11;101333.88;;;2.58;81.37
68075;BME280;54864;52.002;5.468;2023-03-15T04:33:13;101333.88;;;2.61;80.74
68075;BME280;54864;52.002;5.468;2023-03-15T04:34:14;101338.25;;;2.49;81.04
68075;BME280;54864;52.002;5.468;2023-03-15T04:35:15;101332.16;;;2.53;80.52
68075;BME280;54864;52.002;5.468;2023-03-15T04:36:16;101342.56;;;2.55;80.69
68075;BME280;54864;52.002;5.468;2023-03-15T04:37:18;101331.28;;;2.58;80.43
68075;BME280;54864;52.002;5.468;2023-03-15T04:38:19;101333.88;;;2.59;80.65
68075;BME280;54864;52.002;5.468;2023-03-15T04:39:26;101335.63;;;2.57;80.41
68075;BME280;54864;52.002;5.468;2023-03-15T04:40:26;101345.16;;;2.53;80.72
68075;BME280;54864;52.002;5.468;2023-03-15T04:41:28;101342.56;;;2.53;81.12
68075;BME280;54864;52.002;5.468;2023-03-15T04:42:29;101346.03;;;2.57;80.88
68075;BME280;54864;52.002;5.468;2023-03-15T04:43:31;101343.44;;;2.52;80.82
68075;BME280;54864;52.002;5.468;2023-03-15T04:44:31;101342.56;;;2.52;80.99
68075;BME280;54864;52.002;5.468;2023-03-15T04:45:33;101340.84;;;2.51;81.05
68075;BME280;54864;52.002;5.468;2023-03-15T04:46:34;101340.84;;;2.51;81.10
68075;BME280;54864;52.002;5.468;2023-03-15T04:47:37;101348.69;;;2.45;81.21
68075;BME280;54864;52.002;5.468;2023-03-15T04:48:37;101346.06;;;2.43;81.07
68075;BME280;54864;52.002;5.468;2023-03-15T04:49:40;101353.03;;;2.35;81.33
68075;BME280;54864;52.002;5.468;2023-03-15T04:50:41;101353.06;;;2.29;81.48
68075;BME280;54864;52.002;5.468;2023-03-15T04:51:43;101357.38;;;2.36;81.52
68075;BME280;54864;52.002;5.468;2023-03-15T04:52:45;101355.66;;;2.31;81.79
68075;BME280;54864;52.002;5.468;2023-03-15T04:53:45;101352.19;;;2.33;81.50
68075;BME280;54864;52.002;5.468;2023-03-15T04:54:47;101358.25;;;2.31;81.44
68075;BME280;54864;52.002;5.468;2023-03-15T04:55:48;101363.44;;;2.37;81.41
68075;BME280;54864;52.002;5.468;2023-03-15T04:56:50;101347.00;;;2.24;81.70
68075;BME280;54864;52.002;5.468;2023-03-15T04:57:50;101366.03;;;2.40;81.33
68075;BME280;54864;52.002;5.468;2023-03-15T04:58:52;101355.66;;;2.28;81.26
68075;BME280;54864;52.002;5.468;2023-03-15T04:59:53;101358.25;;;2.35;81.37
68075;BME280;54864;52.002;5.468;2023-03-15T05:00:56;101367.78;;;2.38;80.99
68075;BME280;54864;52.002;5.468;2023-03-15T05:01:57;101358.25;;;2.34;81.55
68075;BME280;54864;52.002;5.468;2023-03-15T05:03:00;101362.59;;;2.30;80.96
68075;BME280;54864;52.002;5.468;2023-03-15T05:04:06;101369.53;;;2.27;81.32
68075;BME280;54864;52.002;5.468;2023-03-15T05:05:09;101368.69;;;2.21;81.59
68075;BME280;54864;52.002;5.468;2023-03-15T05:06:10;101370.41;;;2.24;81.58
68075;BME280;54864;52.002;5.468;2023-03-15T05:07:11;101373.88;;;2.28;81.47
68075;BME280;54864;52.002;5.468;2023-03-15T05:08:12;101374.75;;;2.27;81.39
68075;BME280;54864;52.002;5.468;2023-03-15T05:09:14;101374.75;;;2.23;81.47
68075;BME280;54864;52.002;5.468;2023-03-15T05:10:18;101378.22;;;2.26;81.35
68075;BME280;54864;52.002;5.468;2023-03-15T05:11:20;101379.97;;;2.23;81.59
68075;BME280;54864;52.002;5.468;2023-03-15T05:12:21;101379.97;;;2.25;81.49
68075;BME280;54864;52.002;5.468;2023-03-15T05:13:23;101371.28;;;2.28;81.20
68075;BME280;54864;52.002;5.468;2023-03-15T05:14:24;101384.28;;;2.31;81.52
68075;BME280;54864;52.002;5.468;2023-03-15T05:15:26;101377.31;;;2.37;81.40
68075;BME280;54864;52.002;5.468;2023-03-15T05:16:26;101390.34;;;2.30;81.30
68075;BME280;54864;52.002;5.468;2023-03-15T05:17:28;101385.16;;;2.28;81.47
68075;BME280;54864;52.002;5.468;2023-03-15T05:18:30;101383.41;;;2.30;81.42
68075;BME280;54864;52.002;5.468;2023-03-15T05:19:33;101386.88;;;2.34;81.42
68075;BME280;54864;52.002;5.468;2023-03-15T05:20:34;101386.88;;;2.37;81.25
68075;BME280;54864;52.002;5.468;2023-03-15T05:21:35;101388.59;;;2.39;81.13
68075;BME280;54864;52.002;5.468;2023-03-15T05:22:36;101394.66;;;2.41;80.97
68075;BME280;54864;52.002;5.468;2023-03-15T05:23:38;101392.94;;;2.36;81.09
68075;BME280;54864;52.002;5.468;2023-03-15T05:24:39;101390.34;;;2.31;81.28
68075;BME280;54864;52.002;5.468;2023-03-15T05:25:41;101399.03;;;2.30;81.01
68075;BME280;54864;52.002;5.468;2023-03-15T05:26:42;101396.44;;;2.19;81.88
68075;BME280;54864;52.002;5.468;2023-03-15T05:27:45;101390.38;;;2.20;81.78
68075;BME280;54864;52.002;5.468;2023-03-15T05:28:46;101387.78;;;2.22;81.38
68075;BME280;54864;52.002;5.468;2023-03-15T05:29:48;101392.09;;;2.20;81.41
68075;BME280;54864;52.002;5.468;2023-03-15T05:30:50;101394.72;;;2.18;81.45